Terminal Aerodrome Forecast
Issued by NWS Tallahassee, FL

Current Version | Previous Version | Text Only | Print | Product List | Glossary On
Versions: 1 2 3 4 5 6 7 8 9 10 11 12 13 14 15 16 17 18 19 20 21 22
403
FTUS42 KTAE 061124
TAFTLH
TAF
KTLH 061124Z 0612/0712 20010KT 4SM SHRA BR BKN010
     FM061300 22012G18KT P6SM BKN009
     FM061600 25012G20KT P6SM BKN015
     FM062000 26010KT P6SM SCT020
     FM070400 30006KT P6SM BKN015=

USA.gov is the U.S. government's official web portal to all federal, state and local government web resources and services.